createdAt,value
2022-09-12T00:01:31.087Z,100165.34
2022-09-12T00:04:02.055Z,100167.36
2022-09-12T00:06:35.527Z,100166.73
2022-09-12T00:09:10.151Z,100162.58
2022-09-12T00:11:44.739Z,100162.89
2022-09-12T00:14:18.229Z,100166.39
2022-09-12T00:16:46.787Z,100167.77
2022-09-12T00:19:15.518Z,100165.87
2022-09-12T00:21:43.807Z,100164.95
2022-09-12T00:24:12.130Z,100163.64
2022-09-12T00:26:40.499Z,100162.92
2022-09-12T00:29:10.759Z,100160.73
2022-09-12T00:31:39.302Z,100164.00
2022-09-12T00:34:07.721Z,100162.20
2022-09-12T00:36:36.736Z,100160.89
2022-09-12T00:39:06.365Z,100171.70
2022-09-12T00:41:39.855Z,100172.48
2022-09-12T00:44:10.865Z,100174.33
2022-09-12T00:46:45.638Z,100174.19
2022-09-12T00:49:45.943Z,100177.98
2022-09-12T00:52:18.524Z,100181.36
2022-09-12T00:54:55.456Z,100183.22
2022-09-12T00:57:30.055Z,100180.72
2022-09-12T01:00:23.131Z,100177.36
2022-09-12T01:03:04.229Z,100179.08
2022-09-12T01:05:37.214Z,100179.23
2022-09-12T01:08:06.876Z,100183.60
2022-09-12T01:10:38.254Z,100185.41
2022-09-12T01:13:09.643Z,100183.33
2022-09-12T01:15:39.935Z,100181.27
2022-09-12T01:18:44.163Z,100184.48
2022-09-12T01:21:52.820Z,100189.48
2022-09-12T01:25:16.841Z,100188.55
2022-09-12T01:28:23.372Z,100192.11
2022-09-12T01:31:22.039Z,100193.27
2022-09-12T01:34:02.284Z,100192.67
2022-09-12T01:36:39.362Z,100195.73
2022-09-12T01:40:00.515Z,100197.71
2022-09-12T01:42:58.968Z,100194.55
2022-09-12T01:45:46.905Z,100196.87
2022-09-12T01:48:33.121Z,100194.73
2022-09-12T01:51:17.985Z,100194.42
2022-09-12T01:54:12.583Z,100195.61
2022-09-12T01:56:44.235Z,100192.66
2022-09-12T01:59:29.407Z,100191.89
2022-09-12T02:02:16.725Z,100189.70
2022-09-12T02:05:10.933Z,100189.09
2022-09-12T02:07:53.752Z,100188.91
2022-09-12T02:10:32.735Z,100190.85
2022-09-12T02:13:32.333Z,100189.91
2022-09-12T02:16:10.837Z,100192.11
2022-09-12T02:18:44.568Z,100190.37
2022-09-12T02:21:13.695Z,100186.73
2022-09-12T02:23:49.680Z,100197.20
2022-09-12T02:26:24.175Z,100197.59
2022-09-12T02:28:52.514Z,100199.82
2022-09-12T02:31:57.755Z,100194.55
2022-09-12T02:34:49.497Z,100198.16
2022-09-12T02:37:58.164Z,100196.86
2022-09-12T02:40:26.687Z,100190.63
2022-09-12T02:42:55.605Z,100192.22
2022-09-12T02:45:24.141Z,100188.64
2022-09-12T02:48:12.783Z,100189.01
2022-09-12T02:50:42.097Z,100185.23
2022-09-12T02:53:11.351Z,100191.33
2022-09-12T02:55:41.827Z,100192.11
2022-09-12T02:58:22.212Z,100193.81
2022-09-12T03:01:07.874Z,100194.80
2022-09-12T03:03:47.553Z,100194.39
2022-09-12T03:06:33.258Z,100197.80
2022-09-12T03:09:25.432Z,100202.23
2022-09-12T03:12:13.874Z,100199.89
2022-09-12T03:15:07.442Z,100204.08
2022-09-12T03:18:12.086Z,100202.70
2022-09-12T03:21:02.266Z,100205.05
2022-09-12T03:23:59.519Z,100200.95
2022-09-12T03:26:43.348Z,100200.42
2022-09-12T03:29:13.926Z,100199.54
2022-09-12T03:32:08.496Z,100198.76
2022-09-12T03:34:36.942Z,100200.09
2022-09-12T03:37:06.200Z,100199.30
2022-09-12T03:39:34.518Z,100194.91
2022-09-12T03:42:02.910Z,100192.95
2022-09-12T03:44:31.175Z,100193.47
2022-09-12T03:46:59.429Z,100192.89
2022-09-12T03:49:27.658Z,100196.52
2022-09-12T03:51:55.947Z,100193.98
2022-09-12T03:54:24.655Z,100192.20
2022-09-12T03:56:52.918Z,100187.48
2022-09-12T03:59:21.397Z,100194.90
2022-09-12T04:01:49.659Z,100197.42
2022-09-12T04:04:18.032Z,100192.80
2022-09-12T04:06:46.315Z,100204.04
2022-09-12T04:09:14.845Z,100206.30
2022-09-12T04:11:43.081Z,100205.33
2022-09-12T04:14:11.523Z,100208.83
2022-09-12T04:16:41.091Z,100209.48
2022-09-12T04:19:11.724Z,100205.85
2022-09-12T04:21:40.118Z,100209.52
2022-09-12T04:24:08.535Z,100206.55
2022-09-12T04:26:37.021Z,100209.05
2022-09-12T04:29:05.342Z,100208.55
2022-09-12T04:31:33.645Z,100205.38
2022-09-12T04:34:02.055Z,100212.05
2022-09-12T04:36:31.105Z,100210.58
2022-09-12T04:39:01.177Z,100211.16
2022-09-12T04:41:32.720Z,100217.44
2022-09-12T04:44:08.168Z,100216.29
2022-09-12T04:46:41.358Z,100213.34
2022-09-12T04:49:09.874Z,100213.51
2022-09-12T04:51:40.880Z,100215.95
2022-09-12T04:54:15.614Z,100215.24
2022-09-12T04:56:47.360Z,100212.80
2022-09-12T04:59:18.501Z,100216.73
2022-09-12T05:01:48.412Z,100218.01
2022-09-12T05:04:17.259Z,100223.39
2022-09-12T05:06:47.492Z,100223.81
2022-09-12T05:09:16.527Z,100229.38
2022-09-12T05:14:34.946Z,100233.47
2022-09-12T05:17:06.293Z,100230.10
2022-09-12T05:19:34.912Z,100233.45
2022-09-12T05:22:05.004Z,100236.88
2022-09-12T05:24:35.169Z,100239.95
2022-09-12T05:27:04.800Z,100236.58
2022-09-12T05:29:34.097Z,100241.39
2022-09-12T05:32:03.628Z,100243.19
2022-09-12T05:34:31.980Z,100246.74
2022-09-12T05:37:00.413Z,100241.96
2022-09-12T05:39:28.730Z,100245.26
2022-09-12T05:41:57.021Z,100248.51
2022-09-12T05:44:25.269Z,100255.90
2022-09-12T05:46:53.720Z,100258.70
2022-09-12T05:49:22.100Z,100262.45
2022-09-12T05:51:51.691Z,100263.45
2022-09-12T05:54:21.225Z,100261.46
2022-09-12T05:56:49.541Z,100266.50
2022-09-12T05:59:22.055Z,100263.73
2022-09-12T06:01:50.303Z,100266.51
2022-09-12T06:04:18.921Z,100264.27
2022-09-12T06:06:47.284Z,100260.55
2022-09-12T06:09:16.961Z,100263.83
2022-09-12T06:11:46.536Z,100266.67
2022-09-12T06:14:18.132Z,100268.63
2022-09-12T06:16:47.369Z,100263.48
2022-09-12T06:19:21.838Z,100262.66
2022-09-12T06:21:52.711Z,100262.98
2022-09-12T06:24:21.741Z,100259.72
2022-09-12T06:26:52.730Z,100258.81
2022-09-12T06:29:21.970Z,100260.41
2022-09-12T06:31:50.239Z,100261.33
2022-09-12T06:34:19.572Z,100265.11
2022-09-12T06:36:49.474Z,100264.37
2022-09-12T06:39:21.125Z,100257.90
2022-09-12T06:41:51.603Z,100260.33
2022-09-12T06:44:22.754Z,100260.50
2022-09-12T06:46:51.478Z,100262.92
2022-09-12T06:49:19.765Z,100260.40
2022-09-12T06:51:48.310Z,100261.59
2022-09-12T06:54:20.125Z,100263.54
2022-09-12T06:56:48.722Z,100262.67
2022-09-12T06:59:17.105Z,100264.47
2022-09-12T07:01:45.564Z,100262.78
2022-09-12T07:04:13.850Z,100266.68
2022-09-12T07:06:44.089Z,100259.66
2022-09-12T07:09:17.226Z,100265.52
2022-09-12T07:11:46.194Z,100262.59
2022-09-12T07:14:15.684Z,100268.79
2022-09-12T07:16:44.281Z,100265.17
2022-09-12T07:19:12.867Z,100268.45
2022-09-12T07:21:41.621Z,100268.11
2022-09-12T07:24:11.020Z,100269.81
2022-09-12T07:26:42.131Z,100272.27
2022-09-12T07:29:35.772Z,100272.78
2022-09-12T07:32:06.278Z,100279.65
2022-09-12T07:34:36.115Z,100280.60
2022-09-12T07:37:05.147Z,100276.52
2022-09-12T07:39:33.564Z,100281.43
2022-09-12T07:42:01.992Z,100281.73
2022-09-12T07:44:31.687Z,100288.95
2022-09-12T07:47:01.060Z,100290.87
2022-09-12T07:49:30.533Z,100292.97
2022-09-12T07:51:58.874Z,100293.77
2022-09-12T07:54:27.751Z,100298.16
2022-09-12T07:56:56.029Z,100301.35
2022-09-12T07:59:41.801Z,100303.53
2022-09-12T08:02:17.395Z,100303.55
2022-09-12T08:04:48.330Z,100301.39
2022-09-12T08:07:18.374Z,100301.14
2022-09-12T08:09:47.577Z,100304.62
2022-09-12T08:12:17.760Z,100304.42
2022-09-12T08:14:46.618Z,100304.65
2022-09-12T08:17:15.560Z,100301.86
2022-09-12T08:19:44.914Z,100301.75
2022-09-12T08:22:13.662Z,100300.31
2022-09-12T08:27:16.768Z,100293.15
2022-09-12T08:29:45.379Z,100292.94
2022-09-12T08:32:13.671Z,100291.64
2022-09-12T08:34:41.945Z,100297.73
2022-09-12T08:37:10.246Z,100296.91
2022-09-12T08:39:38.582Z,100296.71
2022-09-12T08:46:10.877Z,100295.96
2022-09-12T08:48:40.704Z,100293.14
2022-09-12T08:51:14.185Z,100299.33
2022-09-12T08:53:46.304Z,100302.08
2022-09-12T08:56:15.055Z,100296.84
2022-09-12T08:58:51.157Z,100301.14
2022-09-12T09:01:30.208Z,100296.84
2022-09-12T09:04:20.543Z,100298.27
2022-09-12T09:07:30.400Z,100297.65
2022-09-12T09:10:35.157Z,100298.69
2022-09-12T09:16:37.728Z,100292.23
2022-09-12T09:19:18.127Z,100294.36
2022-09-12T09:22:40.047Z,100298.80
2022-09-12T09:25:42.018Z,100299.48
2022-09-12T09:28:31.121Z,100301.71
2022-09-12T09:30:59.701Z,100300.98
2022-09-12T09:33:36.184Z,100300.55
2022-09-12T09:39:52.040Z,100297.16
2022-09-12T09:42:49.099Z,100296.46
2022-09-12T09:45:22.170Z,100296.09
2022-09-12T09:48:22.251Z,100293.23
2022-09-12T09:50:50.929Z,100289.50
2022-09-12T09:53:32.643Z,100289.36
2022-09-12T09:56:09.883Z,100293.16
2022-09-12T10:05:08.978Z,100292.80
2022-09-12T10:07:39.633Z,100292.13
2022-09-12T10:10:19.549Z,100294.45
2022-09-12T10:12:49.876Z,100295.96
2022-09-12T10:18:48.100Z,100290.78
2022-09-12T10:21:41.274Z,100287.43
2022-09-12T10:24:29.313Z,100289.46
2022-09-12T10:27:21.288Z,100287.48
2022-09-12T10:30:00.315Z,100286.14
2022-09-12T10:32:40.761Z,100289.54
2022-09-12T10:35:18.422Z,100289.45
2022-09-12T10:38:01.384Z,100288.77
2022-09-12T10:40:33.434Z,100284.64
2022-09-12T10:46:31.552Z,100283.02
2022-09-12T10:49:31.279Z,100286.95
2022-09-12T10:59:01.541Z,100281.48
2022-09-12T11:01:51.249Z,100280.95
2022-09-12T11:07:49.819Z,100280.76
2022-09-12T11:10:42.624Z,100279.10
2022-09-12T11:14:02.977Z,100281.48
2022-09-12T11:20:18.535Z,100272.21
2022-09-12T11:32:53.578Z,100273.90
2022-09-12T11:41:40.002Z,100277.42
2022-09-12T11:46:51.892Z,100275.36
2022-09-12T11:52:30.510Z,100269.34
2022-09-12T11:58:55.878Z,100271.39
2022-09-12T12:01:37.437Z,100272.48
2022-09-12T12:04:08.816Z,100271.80
2022-09-12T12:06:53.991Z,100263.88
2022-09-12T12:09:24.025Z,100261.39
2022-09-12T12:11:57.697Z,100258.70
2022-09-12T12:14:56.926Z,100256.55
2022-09-12T12:17:27.343Z,100261.36
2022-09-12T12:20:08.733Z,100259.09
2022-09-12T12:22:37.490Z,100259.63
2022-09-12T12:28:52.151Z,100263.89
2022-09-12T12:34:45.030Z,100260.35
2022-09-12T12:37:33.956Z,100256.58
2022-09-12T12:43:05.300Z,100254.21
2022-09-12T12:45:33.597Z,100249.16
2022-09-12T12:48:15.191Z,100248.66
2022-09-12T12:50:43.582Z,100249.66
2022-09-12T12:53:28.017Z,100250.13
2022-09-12T12:55:57.611Z,100248.11
2022-09-12T12:58:40.636Z,100248.86
2022-09-12T13:01:22.908Z,100249.54
2022-09-12T13:04:05.387Z,100249.75
2022-09-12T13:06:44.672Z,100249.06
2022-09-12T13:15:36.738Z,100248.26
2022-09-12T13:18:14.766Z,100243.89
2022-09-12T13:21:11.722Z,100239.39
2022-09-12T13:23:40.849Z,100243.71
2022-09-12T13:26:25.184Z,100244.76
2022-09-12T13:29:18.332Z,100245.60
2022-09-12T13:31:53.495Z,100239.80
2022-09-12T13:34:29.174Z,100240.14
2022-09-12T13:37:22.740Z,100238.48
2022-09-12T13:40:16.837Z,100238.66
2022-09-12T13:42:53.079Z,100235.60
2022-09-12T13:45:24.583Z,100236.08
2022-09-12T13:53:27.255Z,100228.58
2022-09-12T13:58:37.021Z,100221.24
2022-09-12T14:01:16.424Z,100219.06
2022-09-12T14:04:11.931Z,100217.69
2022-09-12T14:06:52.611Z,100218.56
2022-09-12T14:12:31.357Z,100218.22
2022-09-12T14:14:59.829Z,100216.03
2022-09-12T14:17:36.139Z,100215.62
2022-09-12T14:20:16.233Z,100216.55
2022-09-12T14:22:50.476Z,100216.69
2022-09-12T14:25:25.518Z,100215.39
2022-09-12T14:27:57.456Z,100215.95
2022-09-12T14:30:33.395Z,100212.61
2022-09-12T14:33:10.922Z,100209.30
2022-09-12T14:36:20.797Z,100205.03
2022-09-12T14:39:22.320Z,100202.18
2022-09-12T14:42:00.194Z,100202.37
2022-09-12T14:44:31.116Z,100206.57
2022-09-12T14:47:14.529Z,100206.69
2022-09-12T14:49:45.748Z,100207.36
2022-09-12T14:52:34.787Z,100203.15
2022-09-12T14:55:16.018Z,100205.38
2022-09-12T14:57:47.921Z,100204.16
2022-09-12T15:00:21.707Z,100201.63
2022-09-12T15:02:52.805Z,100205.58
2022-09-12T15:05:27.128Z,100203.23
2022-09-12T15:07:59.528Z,100198.84
2022-09-12T15:10:31.682Z,100199.84
2022-09-12T15:13:05.800Z,100201.58
2022-09-12T15:15:34.956Z,100200.83
2022-09-12T15:18:06.785Z,100205.65
2022-09-12T15:20:41.399Z,100203.23
2022-09-12T15:23:57.686Z,100204.48
2022-09-12T15:26:30.574Z,100198.96
2022-09-12T15:29:00.612Z,100197.04
2022-09-12T15:31:33.843Z,100199.14
2022-09-12T15:34:06.226Z,100197.52
2022-09-12T15:36:36.766Z,100195.73
2022-09-12T15:39:07.121Z,100197.86
2022-09-12T15:41:38.522Z,100199.30
2022-09-12T15:44:12.279Z,100202.39
2022-09-12T15:46:42.193Z,100205.65
2022-09-12T15:49:13.469Z,100204.08
2022-09-12T15:51:42.887Z,100205.25
2022-09-12T15:54:15.803Z,100202.80
2022-09-12T15:56:45.418Z,100202.71
2022-09-12T15:59:16.332Z,100203.92
2022-09-12T16:01:47.116Z,100206.02
2022-09-12T16:04:25.515Z,100208.70
2022-09-12T16:06:56.609Z,100207.38
2022-09-12T16:09:27.479Z,100205.36
2022-09-12T16:11:57.889Z,100203.30
2022-09-12T16:14:29.161Z,100209.15
2022-09-12T16:16:57.587Z,100202.59
2022-09-12T16:19:27.480Z,100201.14
2022-09-12T16:21:55.903Z,100197.56
2022-09-12T16:24:24.137Z,100197.92
2022-09-12T16:26:52.364Z,100194.52
2022-09-12T16:29:20.716Z,100190.49
2022-09-12T16:31:49.030Z,100192.21
2022-09-12T16:36:47.573Z,100187.10
2022-09-12T16:39:16.264Z,100192.89
2022-09-12T16:41:44.628Z,100192.66
2022-09-12T16:44:12.910Z,100191.03
2022-09-12T16:46:45.324Z,100193.16
2022-09-12T16:49:13.824Z,100188.27
2022-09-12T16:51:44.978Z,100186.28
2022-09-12T16:54:17.336Z,100185.63
2022-09-12T16:56:46.657Z,100187.09
2022-09-12T16:59:16.727Z,100185.59
2022-09-12T17:01:45.344Z,100182.92
2022-09-12T17:04:13.756Z,100186.05
2022-09-12T17:06:42.590Z,100181.40
2022-09-12T17:09:11.453Z,100177.71
2022-09-12T17:11:39.711Z,100175.27
2022-09-12T17:14:08.990Z,100174.39
2022-09-12T17:16:49.283Z,100177.98
2022-09-12T17:22:13.980Z,100176.91
2022-09-12T17:24:42.681Z,100174.65
2022-09-12T17:27:11.612Z,100178.18
2022-09-12T17:29:41.483Z,100176.00
2022-09-12T17:32:10.573Z,100176.92
2022-09-12T17:34:41.109Z,100178.73
2022-09-12T17:37:09.714Z,100180.73
2022-09-12T17:39:38.274Z,100187.02
2022-09-12T17:42:08.000Z,100184.66
2022-09-12T17:44:36.382Z,100187.73
2022-09-12T17:47:04.817Z,100192.61
2022-09-12T17:49:33.985Z,100192.35
2022-09-12T17:52:02.604Z,100191.02
2022-09-12T17:54:31.069Z,100194.38
2022-09-12T17:56:59.806Z,100195.64
2022-09-12T17:59:28.552Z,100198.17
2022-09-12T18:02:16.233Z,100200.76
2022-09-12T18:04:46.549Z,100199.21
2022-09-12T18:07:18.358Z,100198.74
2022-09-12T18:09:47.834Z,100197.83
2022-09-12T18:12:17.321Z,100200.68
2022-09-12T18:14:45.671Z,100201.60
2022-09-12T18:17:14.217Z,100208.75
2022-09-12T18:19:43.927Z,100208.52
2022-09-12T18:22:12.251Z,100207.38
2022-09-12T18:24:40.625Z,100211.79
2022-09-12T18:27:08.944Z,100207.48
2022-09-12T18:29:37.183Z,100207.65
2022-09-12T18:32:05.775Z,100209.06
2022-09-12T18:34:35.083Z,100206.86
2022-09-12T18:37:05.329Z,100208.84
2022-09-12T18:39:33.783Z,100208.39
2022-09-12T18:42:02.006Z,100208.33
2022-09-12T18:44:30.322Z,100205.73
2022-09-12T18:46:59.199Z,100204.38
2022-09-12T18:49:27.500Z,100202.48
2022-09-12T18:51:55.899Z,100204.16
2022-09-12T18:54:24.213Z,100199.88
2022-09-12T18:56:52.460Z,100201.52
2022-09-12T18:59:20.760Z,100197.17
2022-09-12T19:01:50.247Z,100197.10
2022-09-12T19:04:18.591Z,100194.29
2022-09-12T19:06:48.669Z,100195.39
2022-09-12T19:09:20.602Z,100199.63
2022-09-12T19:11:49.931Z,100200.13
2022-09-12T19:14:22.814Z,100201.62
2022-09-12T19:16:52.227Z,100200.30
2022-09-12T19:19:21.650Z,100194.64
2022-09-12T19:21:50.028Z,100195.39
2022-09-12T19:24:18.692Z,100193.83
2022-09-12T19:26:48.974Z,100194.91
2022-09-12T19:29:17.745Z,100190.59
2022-09-12T19:31:46.359Z,100196.83
2022-09-12T19:34:15.626Z,100195.54
2022-09-12T19:36:45.997Z,100194.32
2022-09-12T19:39:17.792Z,100189.56
2022-09-12T19:41:46.385Z,100188.86
2022-09-12T19:44:14.781Z,100184.58
2022-09-12T19:46:43.479Z,100188.02
2022-09-12T19:49:13.033Z,100183.32
2022-09-12T19:51:41.561Z,100185.52
2022-09-12T19:54:10.259Z,100186.21
2022-09-12T19:56:38.598Z,100182.83
2022-09-12T19:59:07.027Z,100183.09
2022-09-12T20:01:37.147Z,100183.73
2022-09-12T20:04:06.837Z,100175.52
2022-09-12T20:06:35.439Z,100177.84
2022-09-12T20:09:04.565Z,100174.58
2022-09-12T20:11:33.018Z,100170.42
2022-09-12T20:14:01.550Z,100169.41
2022-09-12T20:16:30.324Z,100168.60
2022-09-12T20:19:06.962Z,100175.79
2022-09-12T20:21:36.845Z,100173.14
2022-09-12T20:24:14.101Z,100168.81
2022-09-12T20:26:43.301Z,100170.14
2022-09-12T20:29:11.849Z,100170.17
2022-09-12T20:31:42.326Z,100173.04
2022-09-12T20:34:16.894Z,100169.35
2022-09-12T20:36:45.933Z,100166.48
2022-09-12T20:39:20.981Z,100168.90
2022-09-12T20:41:49.898Z,100165.14
2022-09-12T20:44:18.360Z,100164.19
2022-09-12T20:46:46.840Z,100164.37
2022-09-12T20:49:15.202Z,100165.70
2022-09-12T20:51:43.727Z,100166.71
2022-09-12T20:54:12.045Z,100164.45
2022-09-12T20:56:40.323Z,100163.90
2022-09-12T20:59:12.690Z,100162.08
2022-09-12T21:01:41.062Z,100161.73
2022-09-12T21:04:13.075Z,100155.96
2022-09-12T21:06:43.403Z,100159.69
2022-09-12T21:09:11.740Z,100163.46
2022-09-12T21:11:40.003Z,100158.20
2022-09-12T21:14:08.366Z,100162.86
2022-09-12T21:16:38.615Z,100163.10
2022-09-12T21:19:06.990Z,100161.08
2022-09-12T21:21:35.293Z,100163.55
2022-09-12T21:24:03.892Z,100164.46
2022-09-12T21:26:32.800Z,100161.75
2022-09-12T21:29:01.454Z,100163.91
2022-09-12T21:31:30.551Z,100159.02
2022-09-12T21:33:58.807Z,100159.81
2022-09-12T21:36:27.430Z,100161.31
2022-09-12T21:38:59.067Z,100160.51
2022-09-12T21:41:28.782Z,100159.35
2022-09-12T21:43:57.055Z,100159.81
2022-09-12T21:46:25.548Z,100165.94
2022-09-12T21:48:53.961Z,100162.11
2022-09-12T21:51:22.290Z,100161.36
2022-09-12T21:53:50.582Z,100159.77
2022-09-12T21:56:18.841Z,100159.81
2022-09-12T21:58:47.491Z,100157.88
2022-09-12T22:01:15.809Z,100158.23
2022-09-12T22:03:44.815Z,100157.40
2022-09-12T22:06:14.334Z,100156.73
2022-09-12T22:08:43.064Z,100155.13
2022-09-12T22:11:11.361Z,100150.70
2022-09-12T22:13:43.859Z,100151.36
2022-09-12T22:16:12.495Z,100151.10
2022-09-12T22:18:40.959Z,100150.60
2022-09-12T22:21:14.429Z,100149.65
2022-09-12T22:24:01.192Z,100148.98
2022-09-12T22:26:32.194Z,100147.55
2022-09-12T22:29:01.930Z,100145.20
2022-09-12T22:31:31.152Z,100143.45
2022-09-12T22:33:59.684Z,100141.90
2022-09-12T22:36:31.108Z,100137.28
2022-09-12T22:39:00.356Z,100137.17
2022-09-12T22:41:28.708Z,100135.36
2022-09-12T22:43:57.392Z,100132.46
2022-09-12T22:46:26.134Z,100135.56
2022-09-12T22:48:55.780Z,100138.40
2022-09-12T22:51:24.531Z,100137.91
2022-09-12T22:53:52.951Z,100134.23
2022-09-12T22:56:21.253Z,100128.27
2022-09-12T22:58:49.645Z,100128.38
2022-09-12T23:01:18.512Z,100127.58
2022-09-12T23:03:46.978Z,100124.52
2022-09-12T23:06:15.848Z,100123.85
2022-09-12T23:08:44.103Z,100118.00
2022-09-12T23:11:15.886Z,100117.39
2022-09-12T23:13:47.496Z,100114.14
2022-09-12T23:16:20.188Z,100117.45
2022-09-12T23:18:49.416Z,100115.23
2022-09-12T23:21:21.275Z,100111.55
2022-09-12T23:23:50.726Z,100108.06
2022-09-12T23:26:22.935Z,100106.38
2022-09-12T23:29:00.087Z,100104.77
2022-09-12T23:31:31.815Z,100103.35
2022-09-12T23:34:03.615Z,100103.12
2022-09-12T23:36:32.859Z,100099.71
2022-09-12T23:39:01.196Z,100093.14
2022-09-12T23:41:29.696Z,100088.89
2022-09-12T23:43:58.199Z,100090.79
2022-09-12T23:46:26.878Z,100086.27
2022-09-12T23:49:01.017Z,100083.33
2022-09-12T23:51:29.673Z,100087.70
2022-09-12T23:53:58.128Z,100083.68
2022-09-12T23:56:27.052Z,100080.79
2022-09-12T23:58:55.337Z,100079.26
